createdAt,value
2024-03-28T00:00:12.134Z,842.00
2024-03-28T00:01:12.146Z,837.00
2024-03-28T00:02:12.200Z,847.00
2024-03-28T00:03:12.267Z,843.00
2024-03-28T00:04:12.224Z,840.00
2024-03-28T00:05:12.232Z,844.00
2024-03-28T00:06:12.281Z,842.00
2024-03-28T00:07:12.294Z,852.00
2024-03-28T00:08:12.296Z,833.00
2024-03-28T00:09:12.351Z,837.00
2024-03-28T00:10:12.382Z,846.00
2024-03-28T00:11:12.366Z,840.00
2024-03-28T00:12:12.373Z,844.00
2024-03-28T00:13:12.440Z,847.00
2024-03-28T00:14:12.480Z,835.00
2024-03-28T00:15:12.445Z,836.00
2024-03-28T00:16:12.459Z,837.00
2024-03-28T00:17:12.460Z,840.00
2024-03-28T00:18:12.460Z,844.00
2024-03-28T00:19:12.586Z,844.00
2024-03-28T00:20:12.424Z,850.00
2024-03-28T00:21:12.730Z,845.00
2024-03-28T00:22:12.469Z,858.00
2024-03-28T00:23:12.442Z,845.00
2024-03-28T00:24:12.508Z,846.00
2024-03-28T00:25:12.527Z,849.00
2024-03-28T00:26:12.454Z,847.00
2024-03-28T00:27:12.472Z,852.00
2024-03-28T00:28:12.512Z,844.00
2024-03-28T00:29:12.429Z,855.00
2024-03-28T00:30:12.500Z,854.00
2024-03-28T00:31:12.565Z,847.00
2024-03-28T00:32:12.455Z,855.00
2024-03-28T00:33:14.013Z,846.00
2024-03-28T00:34:12.690Z,839.00
2024-03-28T00:35:12.690Z,848.00
2024-03-28T00:36:12.685Z,844.00
2024-03-28T00:37:12.752Z,848.00
2024-03-28T00:38:12.742Z,844.00
2024-03-28T00:39:12.822Z,853.00
2024-03-28T00:40:12.834Z,859.00
2024-03-28T00:41:12.871Z,848.00
2024-03-28T00:42:12.829Z,854.00
2024-03-28T00:43:12.896Z,850.00
2024-03-28T00:44:12.902Z,847.00
2024-03-28T00:45:12.902Z,854.00
2024-03-28T00:46:12.993Z,853.00
2024-03-28T00:47:12.986Z,857.00
2024-03-28T00:48:12.978Z,851.00
2024-03-28T00:49:13.055Z,847.00
2024-03-28T00:50:13.039Z,849.00
2024-03-28T00:51:13.093Z,843.00
2024-03-28T00:52:13.131Z,849.00
2024-03-28T00:53:13.125Z,848.00
2024-03-28T00:54:13.126Z,842.00
2024-03-28T00:55:13.184Z,850.00
2024-03-28T00:56:13.179Z,853.00
2024-03-28T00:57:13.235Z,840.00
2024-03-28T00:58:13.271Z,844.00
2024-03-28T00:59:13.257Z,839.00
2024-03-28T01:00:13.313Z,852.00
2024-03-28T01:01:13.366Z,851.00
2024-03-28T01:02:13.333Z,853.00
2024-03-28T01:03:13.395Z,841.00
2024-03-28T01:04:13.397Z,842.00
2024-03-28T01:05:13.443Z,843.00
2024-03-28T01:06:13.461Z,847.00
2024-03-28T01:07:13.528Z,849.00
2024-03-28T01:08:13.531Z,844.00
2024-03-28T01:09:13.572Z,851.00
2024-03-28T01:10:13.664Z,851.00
2024-03-28T01:11:13.581Z,853.00
2024-03-28T01:12:13.646Z,847.00
2024-03-28T01:13:13.671Z,850.00
2024-03-28T01:14:13.697Z,848.00
2024-03-28T01:15:13.724Z,855.00
2024-03-28T01:16:13.733Z,833.00
2024-03-28T01:17:13.790Z,850.00
2024-03-28T01:18:13.797Z,850.00
2024-03-28T01:19:13.864Z,843.00
2024-03-28T01:20:13.873Z,842.00
2024-03-28T01:21:13.933Z,847.00
2024-03-28T01:22:13.949Z,845.00
2024-03-28T01:23:13.980Z,851.00
2024-03-28T01:24:14.041Z,850.00
2024-03-28T01:25:14.076Z,838.00
2024-03-28T01:26:14.067Z,853.00
2024-03-28T01:27:14.121Z,858.00
2024-03-28T01:28:14.154Z,851.00
2024-03-28T01:29:14.192Z,847.00
2024-03-28T01:30:14.308Z,832.00
2024-03-28T01:31:14.386Z,841.00
2024-03-28T01:32:14.297Z,844.00
2024-03-28T01:33:14.308Z,852.00
2024-03-28T01:34:14.337Z,856.00
2024-03-28T01:35:14.468Z,859.00
2024-03-28T01:36:14.475Z,852.00
2024-03-28T01:37:14.551Z,849.00
2024-03-28T01:38:14.595Z,850.00
2024-03-28T01:39:14.666Z,840.00
2024-03-28T01:40:14.614Z,849.00
2024-03-28T01:41:14.740Z,848.00
2024-03-28T01:42:14.680Z,849.00
2024-03-28T01:43:14.722Z,849.00
2024-03-28T01:44:14.747Z,845.00
2024-03-28T01:45:14.798Z,848.00
2024-03-28T01:46:20.071Z,844.00
2024-03-28T01:47:35.367Z,844.00
2024-03-28T01:48:15.894Z,845.00
2024-03-28T01:49:14.849Z,846.00
2024-03-28T01:50:14.835Z,853.00
2024-03-28T01:51:14.850Z,855.00
2024-03-28T01:52:14.872Z,854.00
2024-03-28T01:53:15.263Z,863.00
2024-03-28T01:54:14.806Z,859.00
2024-03-28T01:55:14.821Z,849.00
2024-03-28T01:56:14.824Z,848.00
2024-03-28T01:57:15.222Z,853.00
2024-03-28T01:58:14.845Z,860.00
2024-03-28T01:59:14.832Z,857.00
2024-03-28T02:00:14.863Z,857.00
2024-03-28T02:01:14.862Z,853.00
2024-03-28T02:02:14.867Z,846.00
2024-03-28T02:03:14.826Z,851.00
2024-03-28T02:04:14.831Z,848.00
2024-03-28T02:05:14.843Z,852.00
2024-03-28T02:06:14.857Z,843.00
2024-03-28T02:07:14.896Z,848.00
2024-03-28T02:08:14.857Z,849.00
2024-03-28T02:09:14.869Z,846.00
2024-03-28T02:10:15.759Z,846.00
2024-03-28T02:11:14.854Z,854.00
2024-03-28T02:12:14.824Z,850.00
2024-03-28T02:13:14.862Z,850.00
2024-03-28T02:14:14.847Z,849.00
2024-03-28T02:15:14.845Z,845.00
2024-03-28T02:16:14.852Z,850.00
2024-03-28T02:17:14.853Z,849.00
2024-03-28T02:18:15.274Z,848.00
2024-03-28T02:19:14.870Z,845.00
2024-03-28T02:20:14.872Z,841.00
2024-03-28T02:21:14.859Z,859.00
2024-03-28T02:22:14.854Z,849.00
2024-03-28T02:23:14.887Z,855.00
2024-03-28T02:24:14.907Z,844.00
2024-03-28T02:25:14.868Z,843.00
2024-03-28T02:26:14.893Z,845.00
2024-03-28T02:27:14.995Z,844.00
2024-03-28T02:28:14.997Z,850.00
2024-03-28T02:29:15.000Z,846.00
2024-03-28T02:30:15.049Z,854.00
2024-03-28T02:31:15.065Z,843.00
2024-03-28T02:32:15.130Z,852.00
2024-03-28T02:33:15.126Z,855.00
2024-03-28T02:34:15.181Z,849.00
2024-03-28T02:35:15.246Z,845.00
2024-03-28T02:36:15.225Z,855.00
2024-03-28T02:37:15.286Z,840.00
2024-03-28T02:38:15.310Z,856.00
2024-03-28T02:39:15.386Z,846.00
2024-03-28T02:40:15.458Z,845.00
2024-03-28T02:41:15.430Z,856.00
2024-03-28T02:42:15.499Z,845.00
2024-03-28T02:43:15.570Z,844.00
2024-03-28T02:44:15.545Z,843.00
2024-03-28T02:45:16.864Z,837.00
2024-03-28T02:46:15.643Z,842.00
2024-03-28T02:47:15.673Z,839.00
2024-03-28T02:48:15.752Z,850.00
2024-03-28T02:49:15.804Z,846.00
2024-03-28T02:50:15.806Z,843.00
2024-03-28T02:51:15.814Z,844.00
2024-03-28T02:52:15.901Z,844.00
2024-03-28T02:53:15.916Z,841.00
2024-03-28T02:54:15.938Z,843.00
2024-03-28T02:55:15.995Z,844.00
2024-03-28T02:56:16.037Z,844.00
2024-03-28T02:57:16.049Z,845.00
2024-03-28T02:58:16.136Z,845.00
2024-03-28T02:59:16.263Z,837.00
2024-03-28T03:00:16.185Z,837.00
2024-03-28T03:01:16.300Z,840.00
2024-03-28T03:02:16.269Z,850.00
2024-03-28T03:03:16.357Z,836.00
2024-03-28T03:04:16.377Z,842.00
2024-03-28T03:05:16.382Z,848.00
2024-03-28T03:06:16.492Z,852.00
2024-03-28T03:07:16.506Z,846.00
2024-03-28T03:08:16.577Z,844.00
2024-03-28T03:09:16.605Z,839.00
2024-03-28T03:10:16.699Z,851.00
2024-03-28T03:11:16.728Z,842.00
2024-03-28T03:12:16.790Z,843.00
2024-03-28T03:13:16.804Z,850.00
2024-03-28T03:14:16.848Z,842.00
2024-03-28T03:15:16.910Z,841.00
2024-03-28T03:16:17.327Z,842.00
2024-03-28T03:17:17.010Z,847.00
2024-03-28T03:18:17.016Z,845.00
2024-03-28T03:19:17.092Z,852.00
2024-03-28T03:20:17.147Z,849.00
2024-03-28T03:21:17.304Z,844.00
2024-03-28T03:22:17.220Z,843.00
2024-03-28T03:23:17.277Z,847.00
2024-03-28T03:24:17.319Z,846.00
2024-03-28T03:25:17.369Z,833.00
2024-03-28T03:26:17.419Z,833.00
2024-03-28T03:27:17.470Z,836.00
2024-03-28T03:28:17.517Z,844.00
2024-03-28T03:29:17.564Z,842.00
2024-03-28T03:30:17.615Z,851.00
2024-03-28T03:31:17.673Z,833.00
2024-03-28T03:32:17.742Z,845.00
2024-03-28T03:33:17.747Z,840.00
2024-03-28T03:34:17.815Z,852.00
2024-03-28T03:35:17.844Z,841.00
2024-03-28T03:36:17.922Z,840.00
2024-03-28T03:37:17.974Z,848.00
2024-03-28T03:38:18.019Z,848.00
2024-03-28T03:39:18.039Z,849.00
2024-03-28T03:40:18.171Z,849.00
2024-03-28T03:41:18.158Z,852.00
2024-03-28T03:42:18.209Z,833.00
2024-03-28T03:43:18.284Z,848.00
2024-03-28T03:44:18.355Z,839.00
2024-03-28T03:45:18.504Z,842.00
2024-03-28T03:46:18.532Z,837.00
2024-03-28T03:47:18.557Z,842.00
2024-03-28T03:48:18.744Z,850.00
2024-03-28T03:49:18.905Z,841.00
2024-03-28T03:50:18.976Z,836.00
2024-03-28T03:51:19.023Z,842.00
2024-03-28T03:52:19.162Z,849.00
2024-03-28T03:53:19.143Z,850.00
2024-03-28T03:54:19.217Z,836.00
2024-03-28T03:55:19.303Z,835.00
2024-03-28T03:56:19.276Z,848.00
2024-03-28T03:57:19.327Z,838.00
2024-03-28T03:58:19.457Z,833.00
2024-03-28T03:59:19.448Z,846.00
2024-03-28T04:00:19.513Z,835.00
2024-03-28T04:01:19.592Z,842.00
2024-03-28T04:02:19.628Z,847.00
2024-03-28T04:03:19.671Z,845.00
2024-03-28T04:04:19.768Z,839.00
2024-03-28T04:05:19.779Z,843.00
2024-03-28T04:06:19.803Z,850.00
2024-03-28T04:07:19.923Z,843.00
2024-03-28T04:08:19.941Z,842.00
2024-03-28T04:09:19.961Z,840.00
2024-03-28T04:10:20.047Z,836.00
2024-03-28T04:11:20.080Z,838.00
2024-03-28T04:12:20.129Z,849.00
2024-03-28T04:13:20.253Z,841.00
2024-03-28T04:14:20.270Z,837.00
2024-03-28T04:15:20.339Z,848.00
2024-03-28T04:16:20.425Z,841.00
2024-03-28T04:17:20.463Z,838.00
2024-03-28T04:18:20.561Z,848.00
2024-03-28T04:19:20.572Z,832.00
2024-03-28T04:20:20.650Z,844.00
2024-03-28T04:21:20.664Z,841.00
2024-03-28T04:22:20.777Z,825.00
2024-03-28T04:23:20.799Z,828.00
2024-03-28T04:24:20.840Z,841.00
2024-03-28T04:25:28.760Z,600.00
2024-03-28T04:26:28.916Z,600.00
2024-03-28T04:27:29.018Z,600.00
2024-03-28T04:28:29.170Z,600.00
2024-03-28T04:29:29.652Z,600.00
2024-03-28T04:30:29.340Z,601.00
2024-03-28T04:31:37.246Z,600.00
2024-03-28T04:32:37.397Z,600.00
2024-03-28T04:33:37.567Z,600.00
2024-03-28T04:34:37.719Z,600.00
2024-03-28T04:35:37.907Z,600.00
2024-03-28T04:36:38.058Z,602.00
2024-03-28T04:37:38.202Z,604.00
2024-03-28T04:38:38.336Z,603.00
2024-03-28T04:39:38.528Z,602.00
2024-03-28T04:40:38.629Z,600.00
2024-03-28T04:41:38.669Z,601.00
2024-03-28T04:42:38.872Z,602.00
2024-03-28T04:43:39.473Z,607.00
2024-03-28T04:44:38.894Z,606.00
2024-03-28T04:45:38.878Z,609.00
2024-03-28T04:46:38.924Z,609.00
2024-03-28T04:47:39.267Z,601.00
2024-03-28T04:48:38.893Z,609.00
2024-03-28T04:49:38.905Z,604.00
2024-03-28T04:50:38.915Z,603.00
2024-03-28T04:51:38.916Z,604.00
2024-03-28T04:52:38.951Z,604.00
2024-03-28T04:53:38.925Z,606.00
2024-03-28T04:54:38.886Z,606.00
2024-03-28T04:55:38.899Z,604.00
2024-03-28T04:56:38.893Z,605.00
2024-03-28T04:57:38.879Z,601.00
2024-03-28T04:58:38.893Z,608.00
2024-03-28T04:59:38.903Z,604.00
2024-03-28T05:00:38.911Z,609.00
2024-03-28T05:01:38.930Z,607.00
2024-03-28T05:02:38.920Z,607.00
2024-03-28T05:03:38.895Z,601.00
2024-03-28T05:04:38.899Z,601.00
2024-03-28T05:05:38.896Z,600.00
2024-03-28T05:06:38.875Z,601.00
2024-03-28T05:07:38.929Z,602.00
2024-03-28T05:08:38.906Z,604.00
2024-03-28T05:09:38.939Z,600.00
2024-03-28T05:10:38.952Z,600.00
2024-03-28T05:11:39.002Z,597.00
2024-03-28T05:12:39.024Z,606.00
2024-03-28T05:13:39.177Z,600.00
2024-03-28T05:14:39.192Z,600.00
2024-03-28T05:15:39.262Z,600.00
2024-03-28T05:16:39.364Z,605.00
2024-03-28T05:17:39.358Z,602.00
2024-03-28T05:18:39.472Z,601.00
2024-03-28T05:19:39.538Z,603.00
2024-03-28T05:20:39.567Z,606.00
2024-03-28T05:21:39.654Z,603.00
2024-03-28T05:22:39.766Z,605.00
2024-03-28T05:23:39.851Z,603.00
2024-03-28T05:24:39.873Z,604.00
2024-03-28T05:25:39.919Z,602.00
2024-03-28T05:26:39.996Z,602.00
2024-03-28T05:27:40.127Z,600.00
2024-03-28T05:28:40.153Z,602.00
2024-03-28T05:29:40.299Z,600.00
2024-03-28T05:30:40.340Z,600.00
2024-03-28T05:31:40.365Z,601.00
2024-03-28T05:32:40.467Z,602.00
2024-03-28T05:33:40.533Z,607.00
2024-03-28T05:34:40.613Z,601.00
2024-03-28T05:35:40.671Z,606.00
2024-03-28T05:36:40.720Z,604.00
2024-03-28T05:37:40.839Z,604.00
2024-03-28T05:38:40.992Z,607.00
2024-03-28T05:39:41.089Z,606.00
2024-03-28T05:40:41.243Z,607.00
2024-03-28T05:41:41.713Z,605.00
2024-03-28T05:42:43.804Z,608.00
2024-03-28T05:43:41.484Z,607.00
2024-03-28T05:44:41.502Z,603.00
2024-03-28T05:45:41.472Z,609.00
2024-03-28T05:46:41.506Z,612.00
2024-03-28T05:47:41.472Z,613.00
2024-03-28T05:48:41.508Z,607.00
2024-03-28T05:49:41.492Z,613.00
2024-03-28T05:50:41.468Z,611.00
2024-03-28T05:51:41.702Z,617.00
2024-03-28T05:52:41.484Z,611.00
2024-03-28T05:53:41.482Z,615.00
2024-03-28T05:54:41.523Z,618.00
2024-03-28T05:55:41.591Z,621.00
2024-03-28T05:56:42.557Z,621.00
2024-03-28T05:57:41.475Z,620.00
2024-03-28T05:58:41.480Z,619.00
2024-03-28T05:59:41.471Z,618.00
2024-03-28T06:00:41.497Z,621.00
2024-03-28T06:01:41.467Z,623.00
2024-03-28T06:02:41.470Z,622.00
2024-03-28T06:03:41.494Z,621.00
2024-03-28T06:04:41.487Z,629.00
2024-03-28T06:05:41.574Z,630.00
2024-03-28T06:06:41.496Z,628.00
2024-03-28T06:07:41.457Z,633.00
2024-03-28T06:08:42.220Z,626.00
2024-03-28T06:09:41.528Z,632.00
2024-03-28T06:10:41.653Z,628.00
2024-03-28T06:11:41.653Z,637.00
2024-03-28T06:12:41.681Z,635.00
2024-03-28T06:13:41.750Z,633.00
2024-03-28T06:14:41.808Z,632.00
2024-03-28T06:15:41.869Z,635.00
2024-03-28T06:16:41.912Z,636.00
2024-03-28T06:17:41.984Z,636.00
2024-03-28T06:18:42.040Z,636.00
2024-03-28T06:19:42.103Z,638.00
2024-03-28T06:20:42.150Z,639.00
2024-03-28T06:21:42.315Z,639.00
2024-03-28T06:22:42.255Z,634.00
2024-03-28T06:23:42.328Z,643.00
2024-03-28T06:24:42.371Z,641.00
2024-03-28T06:25:42.454Z,642.00
2024-03-28T06:26:42.463Z,643.00
2024-03-28T06:27:42.580Z,646.00
2024-03-28T06:28:42.616Z,642.00
2024-03-28T06:29:42.679Z,641.00
2024-03-28T06:30:42.717Z,640.00
2024-03-28T06:31:42.791Z,646.00
2024-03-28T06:32:42.798Z,648.00
2024-03-28T06:33:42.975Z,649.00
2024-03-28T06:34:43.015Z,648.00
2024-03-28T06:35:42.958Z,643.00
2024-03-28T06:36:43.103Z,649.00
2024-03-28T06:37:43.073Z,644.00
2024-03-28T06:38:43.151Z,650.00
2024-03-28T06:39:43.194Z,653.00
2024-03-28T06:40:43.243Z,652.00
2024-03-28T06:41:43.302Z,655.00
2024-03-28T06:42:43.322Z,650.00
2024-03-28T06:43:43.382Z,648.00
2024-03-28T06:44:43.433Z,651.00
2024-03-28T06:45:43.495Z,657.00
2024-03-28T06:46:43.531Z,649.00
2024-03-28T06:47:43.614Z,654.00
2024-03-28T06:48:43.660Z,656.00
2024-03-28T06:49:43.734Z,652.00
2024-03-28T06:50:43.739Z,651.00
2024-03-28T06:51:43.793Z,655.00
2024-03-28T06:52:43.893Z,653.00
2024-03-28T06:53:43.902Z,655.00
2024-03-28T06:54:43.981Z,658.00
2024-03-28T06:55:44.027Z,658.00
2024-03-28T06:56:44.086Z,656.00
2024-03-28T06:57:44.193Z,657.00
2024-03-28T06:58:44.220Z,657.00
2024-03-28T06:59:44.258Z,655.00
2024-03-28T07:00:44.299Z,658.00
2024-03-28T07:01:44.375Z,658.00
2024-03-28T07:02:44.375Z,663.00
2024-03-28T07:03:44.778Z,655.00
2024-03-28T07:04:44.555Z,662.00
2024-03-28T07:05:44.579Z,661.00
2024-03-28T07:06:44.607Z,657.00
2024-03-28T07:07:44.668Z,664.00
2024-03-28T07:08:44.729Z,662.00
2024-03-28T07:09:44.800Z,663.00
2024-03-28T07:10:44.805Z,665.00
2024-03-28T07:11:44.856Z,656.00
2024-03-28T07:12:44.958Z,659.00
2024-03-28T07:13:46.287Z,661.00
2024-03-28T07:14:45.071Z,662.00
2024-03-28T07:15:45.075Z,665.00
2024-03-28T07:16:45.153Z,663.00
2024-03-28T07:17:45.194Z,666.00
2024-03-28T07:18:45.271Z,660.00
2024-03-28T07:19:45.389Z,663.00
2024-03-28T07:20:45.349Z,665.00
2024-03-28T07:21:45.385Z,666.00
2024-03-28T07:22:45.434Z,659.00
2024-03-28T07:23:45.443Z,666.00
2024-03-28T07:24:45.502Z,663.00
2024-03-28T07:25:46.288Z,664.00
2024-03-28T07:26:45.589Z,669.00
2024-03-28T07:27:45.635Z,666.00
2024-03-28T07:28:45.655Z,664.00
2024-03-28T07:29:45.684Z,665.00
2024-03-28T07:30:45.767Z,664.00
2024-03-28T07:31:45.766Z,669.00
2024-03-28T07:32:45.821Z,672.00
2024-03-28T07:33:45.832Z,664.00
2024-03-28T07:34:45.890Z,667.00
2024-03-28T07:35:45.913Z,666.00
2024-03-28T07:36:45.929Z,669.00
2024-03-28T07:37:46.015Z,664.00
2024-03-28T07:38:46.014Z,670.00
2024-03-28T07:39:46.066Z,673.00
2024-03-28T07:40:46.092Z,677.00
2024-03-28T07:41:46.107Z,667.00
2024-03-28T07:42:46.164Z,677.00
2024-03-28T07:43:46.189Z,670.00
2024-03-28T07:44:46.232Z,684.00
2024-03-28T07:45:46.261Z,669.00
2024-03-28T07:46:46.272Z,672.00
2024-03-28T07:47:46.321Z,672.00
2024-03-28T07:48:46.358Z,682.00
2024-03-28T07:49:46.403Z,678.00
2024-03-28T07:50:46.436Z,679.00
2024-03-28T07:51:46.453Z,677.00
2024-03-28T07:52:46.523Z,670.00
2024-03-28T07:53:46.520Z,673.00
2024-03-28T07:54:46.528Z,677.00
2024-03-28T07:55:46.586Z,679.00
2024-03-28T07:56:46.616Z,676.00
2024-03-28T07:57:46.656Z,675.00
2024-03-28T07:58:46.649Z,689.00
2024-03-28T07:59:46.699Z,677.00
2024-03-28T08:00:47.181Z,682.00
2024-03-28T08:01:46.728Z,680.00
2024-03-28T08:02:46.790Z,679.00
2024-03-28T08:03:46.816Z,684.00
2024-03-28T08:04:46.846Z,684.00
2024-03-28T08:05:46.863Z,689.00
2024-03-28T08:06:46.921Z,681.00
2024-03-28T08:07:46.902Z,683.00
2024-03-28T08:08:46.931Z,685.00
2024-03-28T08:09:47.012Z,682.00
2024-03-28T08:10:47.037Z,689.00
2024-03-28T08:11:47.021Z,676.00
2024-03-28T08:12:47.066Z,695.00
2024-03-28T08:13:47.036Z,695.00
2024-03-28T08:14:47.047Z,690.00
2024-03-28T08:15:47.175Z,691.00
2024-03-28T08:16:47.123Z,686.00
2024-03-28T08:17:47.137Z,691.00
2024-03-28T08:18:47.133Z,683.00
2024-03-28T08:19:47.160Z,689.00
2024-03-28T08:20:47.198Z,688.00
2024-03-28T08:21:47.227Z,690.00
2024-03-28T08:22:47.250Z,688.00
2024-03-28T08:23:47.288Z,694.00
2024-03-28T08:24:47.296Z,687.00
2024-03-28T08:25:47.325Z,678.00
2024-03-28T08:26:47.377Z,683.00
2024-03-28T08:27:47.377Z,677.00
2024-03-28T08:28:47.380Z,695.00
2024-03-28T08:29:47.392Z,693.00
2024-03-28T08:30:47.447Z,691.00
2024-03-28T08:31:47.437Z,693.00
2024-03-28T08:32:47.449Z,687.00
2024-03-28T08:33:47.469Z,682.00
2024-03-28T08:34:47.547Z,694.00
2024-03-28T08:35:47.504Z,684.00
2024-03-28T08:36:47.536Z,689.00
2024-03-28T08:37:47.550Z,685.00
2024-03-28T08:38:47.588Z,689.00
2024-03-28T08:39:47.603Z,692.00
2024-03-28T08:40:47.595Z,690.00
2024-03-28T08:41:47.652Z,699.00
2024-03-28T08:42:47.657Z,694.00
2024-03-28T08:43:47.707Z,689.00
2024-03-28T08:44:47.712Z,698.00
2024-03-28T08:45:47.708Z,697.00
2024-03-28T08:46:47.719Z,695.00
2024-03-28T08:47:47.742Z,678.00
2024-03-28T08:48:47.760Z,699.00
2024-03-28T08:49:47.800Z,699.00
2024-03-28T08:50:47.816Z,689.00
2024-03-28T08:51:47.851Z,692.00
2024-03-28T08:52:47.824Z,705.00
2024-03-28T08:53:47.830Z,696.00
2024-03-28T08:54:47.857Z,695.00
2024-03-28T08:55:47.861Z,691.00
2024-03-28T08:56:47.907Z,693.00
2024-03-28T08:57:47.889Z,695.00
2024-03-28T08:58:47.866Z,696.00
2024-03-28T08:59:47.942Z,695.00
2024-03-28T09:00:48.836Z,684.00
2024-03-28T09:01:47.917Z,698.00
2024-03-28T09:02:47.926Z,704.00
2024-03-28T09:03:47.930Z,691.00
2024-03-28T09:04:47.976Z,704.00
2024-03-28T09:05:47.980Z,703.00
2024-03-28T09:06:47.988Z,699.00
2024-03-28T09:07:47.999Z,699.00
2024-03-28T09:08:47.991Z,696.00
2024-03-28T09:09:48.032Z,703.00
2024-03-28T09:10:48.034Z,703.00
2024-03-28T09:11:48.037Z,693.00
2024-03-28T09:12:48.083Z,701.00
2024-03-28T09:13:48.097Z,699.00
2024-03-28T09:14:48.106Z,703.00
2024-03-28T09:15:48.108Z,707.00
2024-03-28T09:16:48.180Z,708.00
2024-03-28T09:17:48.141Z,701.00
2024-03-28T09:18:49.062Z,706.00
2024-03-28T09:19:48.136Z,697.00
2024-03-28T09:20:48.153Z,714.00
2024-03-28T09:21:48.157Z,713.00
2024-03-28T09:22:48.198Z,701.00
2024-03-28T09:23:48.106Z,712.00
2024-03-28T09:24:48.116Z,705.00
2024-03-28T09:25:48.177Z,725.00
2024-03-28T09:26:48.126Z,718.00
2024-03-28T09:27:48.160Z,714.00
2024-03-28T09:28:48.222Z,718.00
2024-03-28T09:29:48.160Z,722.00
2024-03-28T09:30:48.148Z,719.00
2024-03-28T09:31:48.176Z,712.00
2024-03-28T09:32:48.226Z,717.00
2024-03-28T09:33:48.284Z,725.00
2024-03-28T09:34:48.239Z,729.00
2024-03-28T09:35:48.242Z,715.00
2024-03-28T09:36:48.247Z,718.00
2024-03-28T09:37:48.271Z,715.00
2024-03-28T09:38:48.275Z,718.00
2024-03-28T09:39:48.278Z,707.00
2024-03-28T09:40:48.320Z,707.00
2024-03-28T09:41:48.321Z,713.00
2024-03-28T09:42:48.346Z,711.00
2024-03-28T09:43:48.408Z,713.00
2024-03-28T09:44:49.295Z,719.00
2024-03-28T09:45:48.398Z,697.00
2024-03-28T09:46:50.223Z,705.00
2024-03-28T09:47:49.283Z,713.00
2024-03-28T09:48:48.380Z,711.00
2024-03-28T09:49:48.375Z,702.00
2024-03-28T09:50:48.388Z,702.00
2024-03-28T09:51:48.384Z,683.00
2024-03-28T09:52:48.417Z,706.00
2024-03-28T09:53:48.416Z,682.00
2024-03-28T09:54:48.411Z,690.00
2024-03-28T09:55:48.423Z,685.00
2024-03-28T09:56:48.400Z,680.00
2024-03-28T09:57:48.453Z,673.00
2024-03-28T09:58:48.408Z,663.00
2024-03-28T09:59:48.413Z,664.00
2024-03-28T10:00:48.840Z,666.00
2024-03-28T10:01:48.428Z,658.00
2024-03-28T10:02:48.369Z,653.00
2024-03-28T10:03:48.396Z,653.00
2024-03-28T10:04:48.397Z,652.00
2024-03-28T10:05:48.457Z,649.00
2024-03-28T10:06:48.394Z,651.00
2024-03-28T10:07:48.409Z,648.00
2024-03-28T10:08:48.417Z,651.00
2024-03-28T10:09:48.430Z,651.00
2024-03-28T10:10:48.409Z,650.00
2024-03-28T10:11:48.427Z,652.00
2024-03-28T10:12:48.425Z,661.00
2024-03-28T10:13:48.453Z,656.00
2024-03-28T10:14:48.457Z,653.00
2024-03-28T10:15:48.492Z,653.00
2024-03-28T10:16:48.427Z,659.00
2024-03-28T10:17:48.445Z,660.00
2024-03-28T10:18:48.440Z,659.00
2024-03-28T10:19:48.477Z,661.00
2024-03-28T10:20:48.458Z,660.00
2024-03-28T10:21:48.502Z,661.00
2024-03-28T10:22:48.471Z,665.00
2024-03-28T10:23:48.414Z,662.00
2024-03-28T10:24:48.497Z,666.00
2024-03-28T10:25:48.543Z,667.00
2024-03-28T10:26:48.438Z,669.00
2024-03-28T10:27:48.437Z,679.00
2024-03-28T10:28:48.517Z,679.00
2024-03-28T10:29:48.718Z,680.00
2024-03-28T10:30:48.658Z,687.00
2024-03-28T10:31:49.350Z,690.00
2024-03-28T10:32:48.783Z,689.00
2024-03-28T10:33:48.860Z,676.00
2024-03-28T10:34:49.859Z,686.00
2024-03-28T10:35:49.015Z,683.00
2024-03-28T10:36:49.069Z,688.00
2024-03-28T10:37:56.292Z,688.00
2024-03-28T10:38:50.111Z,688.00
2024-03-28T10:39:49.104Z,676.00
2024-03-28T10:40:49.110Z,665.00
2024-03-28T10:41:49.110Z,656.00
2024-03-28T10:42:49.119Z,647.00
2024-03-28T10:43:49.132Z,639.00
2024-03-28T10:44:49.136Z,627.00
2024-03-28T10:45:49.256Z,615.00
2024-03-28T10:46:49.202Z,609.00
2024-03-28T10:47:49.257Z,597.00
2024-03-28T10:48:49.320Z,600.00
2024-03-28T10:49:51.275Z,600.00
2024-03-28T10:50:49.479Z,600.00
2024-03-28T10:51:49.504Z,599.00
2024-03-28T10:52:49.546Z,601.00
2024-03-28T10:53:49.633Z,599.00
2024-03-28T10:54:49.616Z,600.00
2024-03-28T10:55:49.721Z,599.00
2024-03-28T10:56:49.676Z,599.00
2024-03-28T10:57:49.739Z,605.00
2024-03-28T10:58:49.743Z,601.00
2024-03-28T10:59:49.869Z,600.00
2024-03-28T11:00:53.346Z,599.00
2024-03-28T11:01:50.889Z,599.00
2024-03-28T11:02:49.928Z,594.00
2024-03-28T11:03:49.882Z,585.00
2024-03-28T11:04:49.881Z,581.00
2024-03-28T11:05:49.889Z,572.00
2024-03-28T11:06:49.904Z,599.00
2024-03-28T11:07:49.913Z,600.00
2024-03-28T11:08:49.874Z,600.00
2024-03-28T11:09:49.922Z,600.00
2024-03-28T11:10:49.963Z,602.00
2024-03-28T11:11:50.036Z,604.00
2024-03-28T11:12:50.052Z,605.00
2024-03-28T11:13:52.534Z,603.00
2024-03-28T11:14:50.081Z,600.00
2024-03-28T11:15:50.069Z,600.00
2024-03-28T11:16:50.109Z,605.00
2024-03-28T11:17:50.120Z,602.00
2024-03-28T11:18:50.095Z,606.00
2024-03-28T11:19:50.093Z,607.00
2024-03-28T11:20:50.097Z,600.00
2024-03-28T11:21:50.106Z,606.00
2024-03-28T11:22:50.119Z,600.00
2024-03-28T11:23:50.130Z,601.00
2024-03-28T11:24:50.128Z,604.00
2024-03-28T11:25:50.135Z,608.00
2024-03-28T11:26:50.079Z,603.00
2024-03-28T11:27:50.138Z,602.00
2024-03-28T11:28:50.168Z,607.00
2024-03-28T11:29:50.160Z,606.00
2024-03-28T11:30:50.118Z,600.00
2024-03-28T11:31:50.120Z,611.00
2024-03-28T11:32:50.386Z,624.00
2024-03-28T11:33:50.128Z,630.00
2024-03-28T11:34:50.100Z,636.00
2024-03-28T11:35:50.300Z,641.00
2024-03-28T11:36:50.116Z,645.00
2024-03-28T11:37:50.112Z,647.00
2024-03-28T11:38:50.134Z,652.00
2024-03-28T11:39:50.123Z,659.00
2024-03-28T11:40:50.142Z,664.00
2024-03-28T11:41:50.292Z,694.00
2024-03-28T11:42:50.392Z,698.00
2024-03-28T11:43:50.306Z,723.00
2024-03-28T11:44:50.397Z,723.00
2024-03-28T11:45:50.488Z,746.00
2024-03-28T11:46:50.527Z,752.00
2024-03-28T11:47:50.596Z,753.00
2024-03-28T11:48:50.818Z,764.00
2024-03-28T11:49:50.744Z,780.00
2024-03-28T11:50:50.814Z,788.00
2024-03-28T11:51:50.873Z,798.00
2024-03-28T11:52:50.968Z,805.00
2024-03-28T11:53:57.217Z,797.00
2024-03-28T11:54:52.068Z,797.00
2024-03-28T11:55:51.000Z,802.00
2024-03-28T11:56:51.062Z,806.00
2024-03-28T11:57:51.830Z,824.00
2024-03-28T11:58:51.379Z,851.00
2024-03-28T11:59:51.026Z,855.00
2024-03-28T12:00:51.069Z,865.00
2024-03-28T12:01:51.096Z,858.00
2024-03-28T12:02:51.120Z,870.00
2024-03-28T12:03:51.223Z,870.00
2024-03-28T12:04:51.271Z,888.00
2024-03-28T12:05:51.354Z,888.00
2024-03-28T12:06:51.384Z,894.00
2024-03-28T12:07:51.445Z,923.00
2024-03-28T12:08:51.544Z,927.00
2024-03-28T12:09:51.603Z,920.00
2024-03-28T12:10:51.654Z,940.00
2024-03-28T12:11:51.728Z,935.00
2024-03-28T12:12:51.785Z,943.00
2024-03-28T12:13:51.847Z,943.00
2024-03-28T12:14:51.904Z,956.00
2024-03-28T12:15:51.968Z,960.00
2024-03-28T12:16:52.070Z,955.00
2024-03-28T12:17:52.125Z,967.00
2024-03-28T12:18:52.169Z,969.00
2024-03-28T12:19:52.244Z,985.00
2024-03-28T12:20:52.306Z,981.00
2024-03-28T12:21:52.398Z,982.00
2024-03-28T12:22:52.491Z,985.00
2024-03-28T12:23:52.535Z,1000.00
2024-03-28T12:24:52.578Z,1004.00
2024-03-28T12:25:52.644Z,1017.00
2024-03-28T12:26:52.739Z,1011.00
2024-03-28T12:27:52.791Z,1020.00
2024-03-28T12:28:52.902Z,1015.00